• Join FlightAware (Why Join?)
  • Login
  • US Flag 
08:44PM EDT


 

Airport Tracker/Info


-or-


 

Live Flight TrackerFlight Track Log ✈ EJA951 ✈ 13-Mar-2014 ✈ KBMI - KBMG

Flight Track Log - Related Links

Times and Time Zones

All times are in EDT time to prevent confusion due to time zone crossing. See the EJA951 flight status page for this flight to view local times or setup timezone preferences in your user account.

Time Position Orientation Groundspeed Altitude Reporting Facility
EDT Latitude Longitude Course Direction KTS MPH feet Rate Location/Type
02:50PM 40.4464 -88.9075 124° Southeast 178 205 3,000  Level Chicago Center
02:51PM 40.4056 -88.8267 124° Southeast 266 306 6,500 3,300 Climbing Chicago Center
02:52PM 40.3556 -88.7408 127° Southeast 288 331 9,900 2,220 Climbing Chicago Center
02:53PM 40.3008 -88.6422 126° Southeast 328 377 11,200 1,860 Climbing Chicago Center
02:54PM 40.2239 -88.5078 127° Southeast 380 437 13,800 1,800 Climbing Chicago Center
02:55PM 40.1519 -88.3814 127° Southeast 421 484 15,000 540 Climbing Chicago Center
02:56PM 40.0783 -88.2492 126° Southeast 445 512 15,000  Level Chicago Center
02:57PM 39.9989 -88.1144 128° Southeast 450 518 15,000  Level Chicago Center
02:58PM 39.9267 -87.9933 128° Southeast 432 497 15,000  Level Chicago Center
02:59PM 39.8569 -87.8714 127° Southeast 424 488 15,000  Level Chicago Center
03:00PM 39.7861 -87.7492 127° Southeast 423 487 15,000 -300 Level Chicago Center
03:01PM 39.6978 -87.5994 127° Southeast 433 498 14,500 -780 Descending Chicago Center
03:02PM 39.6261 -87.4789 128° Southeast 427 491 13,400 -1,020 Descending Chicago Center
03:03PM 39.5567 -87.3628 128° Southeast 410 472 12,500 -1,200 Descending Chicago Center
03:05PM 39.4994 -87.2639 127° Southeast 349 402 11,000 -1,740 Descending Chicago Center
03:06PM 39.4272 -87.1333 126° Southeast 319 367 8,400 -2,280 Descending Indianapolis Center
03:07PM 39.3814 -87.0492 125° Southeast 303 349 5,600 -2,400 Descending Indianapolis Center
03:08PM 39.3378 -86.9678 125° Southeast 289 333 3,500 -1,260 Descending Indianapolis Center
03:09PM 39.2931 -86.8858 125° Southeast 245 282 3,000 -300 Descending Indianapolis Center
03:10PM 39.2653 -86.8125 116° Southeast 239 275 2,900 -180 Descending Indianapolis Center
03:11PM 39.2506 -86.7353 104° East 229 264 2,700 -300 Descending Indianapolis Center
03:12PM 39.2358 -86.6644 105° East 215 247 2,400 -360 Descending Indianapolis Center
03:13PM 39.2056 -86.6264 136° Southeast 189 217 2,000 -480 Descending Indianapolis Center
03:14PM 39.1631 -86.6186 172° South 165 190 1,500 -540 Descending Indianapolis Center